Time;durP1;ratioP1;P1;durP2;ratioP2;P2;SDS_P1;SDS_P2;PMS_P1;PMS_P2;Temp;Humidity;BMP_temperature;BMP_pressure;BME280_temperature;BME280_humidity;BME280_pressure;Samples;Min_cycle;Max_cycle;Signal;HPM_P1;HPM_P2
2023/01/25 08:39:52;;;;;;;10.80;9.70;;;18.30;46.40;;;;;;5127260;27;20286;-71
2023/01/25 08:42:28;;;;;;;14.47;12.00;;;14.30;41.10;;;;;;5128660;28;20196;-71
2023/01/25 08:44:57;;;;;;;17.40;12.40;;;10.90;46.00;;;;;;5130404;28;20189;-72
2023/01/25 08:47:26;;;;;;;23.27;16.90;;;8.50;50.00;;;;;;5129843;28;20199;-71
2023/01/25 08:49:55;;;;;;;16.03;12.03;;;6.90;53.20;;;;;;5130343;28;20733;-72
2023/01/25 08:52:24;;;;;;;20.43;14.40;;;5.60;55.40;;;;;;5129915;27;20191;-71
2023/01/25 08:54:54;;;;;;;19.77;13.63;;;4.90;58.10;;;;;;5130454;28;20206;-73
2023/01/25 08:57:23;;;;;;;16.87;12.53;;;4.40;60.30;;;;;;5130341;27;20193;-71
2023/01/25 08:59:52;;;;;;;18.50;13.70;;;4.10;63.00;;;;;;5130014;27;20303;-70
2023/01/25 09:02:21;;;;;;;16.70;12.40;;;3.90;64.00;;;;;;5129188;27;20204;-71
2023/01/25 09:04:50;;;;;;;16.87;11.40;;;3.60;64.60;;;;;;5129952;27;20199;-71
2023/01/25 09:07:19;;;;;;;17.50;12.83;;;3.40;66.30;;;;;;5130182;27;20192;-71
2023/01/25 09:09:48;;;;;;;18.40;12.90;;;3.20;67.30;;;;;;5129761;27;20229;-74
2023/01/25 09:12:19;;;;;;;14.27;11.23;;;3.10;68.70;;;;;;5129643;27;20195;-73
2023/01/25 09:14:48;;;;;;;16.33;11.23;;;3.10;70.30;;;;;;5130294;28;20726;-72
2023/01/25 09:17:17;;;;;;;17.90;12.37;;;3.00;70.00;;;;;;5129339;27;20203;-71
2023/01/25 09:19:48;;;;;;;16.00;12.27;;;2.90;71.80;;;;;;5129640;28;20642;-73
2023/01/25 09:22:20;;;;;;;16.20;11.80;;;2.90;72.40;;;;;;5129382;28;20316;-73
2023/01/25 09:24:51;;;;;;;15.23;10.23;;;2.90;73.60;;;;;;5129691;27;20270;-73
2023/01/25 09:27:21;;;;;;;16.90;11.87;;;2.80;73.00;;;;;;5129684;27;20191;-73
2023/01/25 09:29:50;;;;;;;14.70;11.60;;;2.80;74.10;;;;;;5129643;27;20195;-71
2023/01/25 09:32:29;;;;;;;13.73;10.37;;;2.90;75.60;;;;;;5127252;27;20649;-73
2023/01/25 09:34:58;;;;;;;16.93;11.33;;;2.90;74.90;;;;;;5129471;28;20669;-72
2023/01/25 09:37:28;;;;;;;15.90;11.80;;;2.80;75.20;;;;;;5128680;27;20215;-70
2023/01/25 09:39:57;;;;;;;15.67;11.67;;;2.80;76.50;;;;;;5128919;27;20674;-71
2023/01/25 09:43:00;;;;;;;16.67;11.50;;;2.80;76.50;;;;;;5129101;27;20244;-71
2023/01/25 09:45:32;;;;;;;30.30;18.20;;;2.80;77.40;;;;;;5045673;28;20297;-72
2023/01/25 09:48:15;;;;;;;15.60;11.17;;;2.80;77.30;;;;;;5046220;28;20197;-72
2023/01/25 09:51:00;;;;;;;14.67;11.00;;;2.80;77.50;;;;;;5034641;28;20214;-71
2023/01/25 09:53:35;;;;;;;13.90;10.13;;;2.70;77.20;;;;;;5032581;28;20237;-72
2023/01/25 09:56:10;;;;;;;13.77;10.73;;;2.80;78.40;;;;;;5032582;28;20214;-72
2023/01/25 09:58:44;;;;;;;15.47;10.73;;;2.80;78.40;;;;;;5032538;28;20220;-72
2023/01/25 10:01:24;;;;;;;13.37;10.67;;;2.80;78.40;;;;;;5031769;28;20197;-72
2023/01/25 10:04:12;;;;;;;22.43;15.00;;;2.90;78.70;;;;;;5032572;28;20206;-74
2023/01/25 10:06:44;;;;;;;16.07;11.50;;;2.90;79.00;;;;;;5032545;28;20200;-72
2023/01/25 10:09:37;;;;;;;16.13;11.53;;;2.90;78.80;;;;;;5031878;28;20251;-71
2023/01/25 10:12:18;;;;;;;18.77;12.40;;;2.80;80.60;;;;;;5031908;28;20194;-75
2023/01/25 10:14:49;;;;;;;13.93;10.77;;;2.90;82.30;;;;;;5031552;28;20275;-73
2023/01/25 10:17:27;;;;;;;17.50;12.23;;;3.00;80.70;;;;;;5032274;28;20331;-75
2023/01/25 10:20:18;;;;;;;19.70;11.27;;;3.00;80.70;;;;;;5031859;28;20732;-71
2023/01/25 10:22:52;;;;;;;18.20;12.30;;;3.10;81.80;;;;;;5101196;28;20268;-73
2023/01/25 10:25:35;;;;;;;15.80;12.00;;;3.10;81.80;;;;;;5115087;28;20199;-71
2023/01/25 10:28:24;;;;;;;19.30;11.83;;;3.30;81.90;;;;;;5111534;28;20210;-73
2023/01/25 10:31:00;;;;;;;14.93;10.47;;;3.30;80.30;;;;;;5094424;28;20192;-72
2023/01/25 10:33:31;;;;;;;20.40;12.33;;;3.20;78.70;;;;;;5094220;28;20211;-72
2023/01/25 10:36:06;;;;;;;17.57;11.30;;;3.00;78.30;;;;;;5092884;28;20226;-76
2023/01/25 10:38:41;;;;;;;17.47;11.77;;;2.80;79.80;;;;;;5098998;28;20238;-71
2023/01/25 10:41:21;;;;;;;15.73;11.63;;;2.80;81.20;;;;;;5114367;28;20199;-77
2023/01/25 10:44:20;;;;;;;22.63;13.43;;;2.70;81.00;;;;;;5114455;28;20187;-77
2023/01/25 10:46:44;;;;;;;16.67;10.90;;;2.70;81.80;;;;;;5114174;28;20204;-79
2023/01/25 10:49:29;;;;;;;21.40;13.67;;;2.70;82.60;;;;;;5114579;28;20192;-79
2023/01/25 10:52:18;;;;;;;22.17;12.77;;;2.60;83.00;;;;;;5114089;28;20622;-75
2023/01/25 10:54:58;;;;;;;17.63;12.00;;;2.60;82.60;;;;;;5114015;28;20188;-82
2023/01/25 10:57:38;;;;;;;24.07;12.60;;;2.50;82.80;;;;;;5035495;28;20257;-78
2023/01/25 11:00:24;;;;;;;19.80;13.40;;;2.50;83.60;;;;;;5053180;28;20209;-77
2023/01/25 11:02:55;;;;;;;19.07;11.97;;;2.50;84.50;;;;;;5051071;28;20640;-77
2023/01/25 11:05:33;;;;;;;22.30;13.60;;;2.50;84.20;;;;;;5053285;28;20197;-77
2023/01/25 11:08:24;;;;;;;21.70;13.70;;;2.50;84.80;;;;;;5052941;28;20203;-77
2023/01/25 11:11:15;;;;;;;27.80;16.83;;;2.50;83.70;;;;;;5051772;28;20617;-75
2023/01/25 11:13:50;;;;;;;21.73;14.03;;;2.50;84.60;;;;;;5053297;28;20245;-77
2023/01/25 11:16:35;;;;;;;27.70;13.90;;;2.60;84.10;;;;;;5053315;28;20200;-76
2023/01/25 11:19:27;;;;;;;26.93;15.83;;;2.50;84.30;;;;;;5052142;28;20320;-75
2023/01/25 11:22:03;;;;;;;29.30;15.97;;;2.60;84.80;;;;;;5074268;22;20236;-75
2023/01/25 11:24:37;;;;;;;30.30;15.63;;;2.70;84.50;;;;;;5093478;28;20188;-76
2023/01/25 11:27:18;;;;;;;31.03;16.97;;;2.70;84.10;;;;;;5093367;28;20232;-77
2023/01/25 11:30:08;;;;;;;33.40;18.20;;;2.80;84.00;;;;;;5093383;28;20188;-75
2023/01/25 11:32:39;;;;;;;35.70;18.83;;;2.80;83.80;;;;;;5093009;28;20216;-78
2023/01/25 11:35:21;;;;;;;33.97;18.90;;;2.80;83.80;;;;;;5093301;28;20295;-78
2023/01/25 11:38:18;;;;;;;;;;;;;;;;;;;;;
2023/01/25 11:40:53;;;;;;;38.93;18.40;;;3.00;86.10;;;;;;5072553;28;20225;-80
2023/01/25 11:43:40;;;;;;;37.70;20.03;;;3.10;83.20;;;;;;5072455;28;20191;-77
2023/01/25 11:46:21;;;;;;;43.57;22.37;;;3.00;82.70;;;;;;5072848;28;20207;-77
2023/01/25 11:49:16;;;;;;;39.40;19.27;;;3.10;84.70;;;;;;5072475;28;20219;-78
2023/01/25 11:52:14;;;;;;;45.90;21.37;;;3.20;83.30;;;;;;5072134;28;20635;-76
2023/01/25 11:54:52;;;;;;;47.03;21.67;;;3.20;82.20;;;;;;5072508;28;20272;-77
2023/01/25 11:57:45;;;;;;;45.77;21.90;;;3.00;81.60;;;;;;5072562;28;20235;-78
2023/01/25 12:00:45;;;;;;;49.30;21.30;;;3.00;81.70;;;;;;5072228;28;20706;-78
2023/01/25 12:03:56;;;;;;;52.13;25.53;;;3.00;82.90;;;;;;5072305;28;20312;-77
2023/01/25 12:06:42;;;;;;;58.73;24.23;;;3.10;82.90;;;;;;5072296;28;20603;-78
2023/01/25 12:09:28;;;;;;;52.87;22.23;;;3.10;81.70;;;;;;5081991;28;20204;-77
2023/01/25 12:12:10;;;;;;;52.53;24.80;;;3.10;81.40;;;;;;5092047;28;20277;-77
2023/01/25 12:14:55;;;;;;;53.30;23.50;;;3.10;81.80;;;;;;5092575;28;20196;-78
2023/01/25 12:17:35;;;;;;;61.70;26.50;;;3.10;81.30;;;;;;5092600;28;20188;-77
2023/01/25 12:20:30;;;;;;;53.10;25.50;;;3.10;81.60;;;;;;5092236;28;20247;-78
2023/01/25 12:23:28;;;;;;;58.63;25.73;;;3.10;81.60;;;;;;5076172;28;20228;-79
2023/01/25 12:26:19;;;;;;;61.40;26.23;;;3.10;82.00;;;;;;5092364;28;20219;-77
2023/01/25 12:28:54;;;;;;;65.63;27.37;;;3.00;81.60;;;;;;5092383;28;20650;-76
2023/01/25 12:31:30;;;;;;;56.57;26.10;;;3.00;82.10;;;;;;5091945;28;20203;-78
2023/01/25 12:34:01;;;;;;;62.13;27.53;;;3.00;81.70;;;;;;5074256;28;20547;-77
2023/01/25 12:36:35;;;;;;;59.33;27.23;;;3.00;82.40;;;;;;5092193;28;20306;-78
2023/01/25 12:39:07;;;;;;;58.80;28.80;;;3.10;83.30;;;;;;5091904;28;20192;-75
2023/01/25 12:41:51;;;;;;;49.80;26.13;;;3.10;82.40;;;;;;5091717;28;20227;-78
2023/01/25 12:44:28;;;;;;;48.93;26.03;;;3.10;81.30;;;;;;5092244;28;20204;-80
2023/01/25 12:47:05;;;;;;;57.87;26.77;;;3.00;80.60;;;;;;5092162;28;20198;-77
2023/01/25 12:49:38;;;;;;;46.07;21.87;;;3.00;82.00;;;;;;5092221;28;20299;-79
2023/01/25 12:52:19;;;;;;;53.80;25.80;;;3.00;81.10;;;;;;5091615;28;20192;-76
2023/01/25 12:54:48;;;;;;;50.57;25.47;;;2.90;81.90;;;;;;5092210;28;20200;-78
2023/01/25 12:57:28;;;;;;;56.17;25.53;;;2.90;82.10;;;;;;5092218;28;20199;-75
2023/01/25 13:00:18;;;;;;;51.10;24.30;;;2.90;81.80;;;;;;5091911;28;20249;-75
2023/01/25 13:02:59;;;;;;;54.90;26.57;;;3.00;82.10;;;;;;5073636;28;20207;-76
2023/01/25 13:05:36;;;;;;;54.43;24.73;;;3.00;82.30;;;;;;5091884;28;20192;-77
2023/01/25 13:08:17;;;;;;;51.40;24.20;;;3.00;82.00;;;;;;5073755;28;20242;-77
2023/01/25 13:11:23;;;;;;;54.93;26.10;;;3.00;82.60;;;;;;5091990;28;20227;-78
2023/01/25 13:13:52;;;;;;;42.10;23.37;;;3.10;81.20;;;;;;5029692;28;20214;-78
2023/01/25 13:16:47;;;;;;;49.10;25.53;;;3.10;81.20;;;;;;5029554;28;20226;-79
2023/01/25 13:23:24;;;;;;;42.13;21.80;;;3.10;81.60;;;;;;5002849;28;20266;-77
2023/01/25 13:26:30;;;;;;;47.03;21.43;;;3.00;80.60;;;;;;5011286;28;20252;-78
2023/01/25 13:28:59;;;;;;;41.80;21.20;;;3.00;80.90;;;;;;4974216;28;20214;-77
2023/01/25 13:31:51;;;;;;;38.73;22.20;;;3.00;81.80;;;;;;4974377;28;20209;-78
2023/01/25 13:34:54;;;;;;;45.70;22.33;;;3.00;81.00;;;;;;4974304;28;20296;-78
2023/01/25 13:37:24;;;;;;;41.97;21.00;;;3.00;81.90;;;;;;4974266;28;20710;-78
2023/01/25 13:39:55;;;;;;;40.63;21.97;;;3.00;82.20;;;;;;4974132;28;20237;-78
2023/01/25 13:42:25;;;;;;;37.97;21.03;;;3.10;82.20;;;;;;4957946;28;20215;-77
2023/01/25 13:45:01;;;;;;;42.07;22.13;;;3.10;81.60;;;;;;4974202;28;20209;-79
2023/01/25 13:47:36;;;;;;;44.20;20.30;;;3.10;80.90;;;;;;4973963;28;20291;-80
2023/01/25 13:50:27;;;;;;;32.60;19.33;;;3.10;80.70;;;;;;4984686;28;20209;-78
2023/01/25 13:55:45;;;;;;;29.87;17.47;;;3.00;80.80;;;;;;5051181;28;20236;-80
2023/01/25 13:58:25;;;;;;;32.80;18.77;;;3.00;80.60;;;;;;5052510;28;20284;-80
2023/01/25 14:00:59;;;;;;;33.97;19.50;;;2.90;80.70;;;;;;5052492;28;20217;-74
2023/01/25 14:03:43;;;;;;;40.93;23.53;;;2.90;82.30;;;;;;5052604;28;20256;-78
2023/01/25 14:06:32;;;;;;;30.50;17.70;;;3.00;82.60;;;;;;5082970;28;20661;-79
2023/01/25 14:09:06;;;;;;;30.87;18.90;;;3.00;81.20;;;;;;5094919;28;20197;-80
2023/01/25 14:11:44;;;;;;;32.00;19.93;;;2.90;81.10;;;;;;5094836;28;20195;-79
2023/01/25 14:14:32;;;;;;;29.77;19.03;;;2.90;81.60;;;;;;5094853;28;20198;-78
2023/01/25 14:17:11;;;;;;;31.00;19.57;;;2.90;82.10;;;;;;5094834;28;20188;-75
2023/01/25 14:19:44;;;;;;;32.43;18.77;;;2.90;82.50;;;;;;5094621;28;20188;-76
2023/01/25 14:22:31;;;;;;;30.93;18.97;;;2.90;82.50;;;;;;5094420;28;20243;-77
2023/01/25 14:25:07;;;;;;;28.40;18.07;;;3.00;82.80;;;;;;5094601;28;20200;-76
2023/01/25 14:27:37;;;;;;;28.47;17.90;;;2.80;82.20;;;;;;5094502;28;20207;-74
2023/01/25 14:30:15;;;;;;;30.10;16.10;;;2.80;82.90;;;;;;5094475;28;20193;-75
2023/01/25 14:32:44;;;;;;;30.57;18.10;;;2.70;82.80;;;;;;5094324;28;20703;-76
2023/01/25 14:35:46;;;;;;;28.40;19.07;;;2.70;84.10;;;;;;5094162;28;20196;-75
2023/01/25 14:38:30;;;;;;;28.43;19.60;;;2.80;84.00;;;;;;5069654;28;20242;-77
2023/01/25 14:41:07;;;;;;;34.77;20.93;;;2.80;83.40;;;;;;5094089;28;20211;-77
2023/01/25 14:43:37;;;;;;;33.30;20.27;;;2.80;83.30;;;;;;5094157;28;20205;-79
2023/01/25 14:46:24;;;;;;;31.33;21.13;;;2.80;84.20;;;;;;5094170;28;20193;-78
2023/01/25 14:49:25;;;;;;;31.07;19.37;;;2.80;83.40;;;;;;5094064;28;20202;-79
2023/01/25 14:52:04;;;;;;;33.97;19.53;;;2.80;84.00;;;;;;5093874;28;20219;-79
2023/01/25 14:54:36;;;;;;;32.53;19.47;;;2.70;84.40;;;;;;5094200;28;20622;-79
2023/01/25 14:57:31;;;;;;;29.87;20.40;;;2.70;84.00;;;;;;5093954;28;20184;-77
2023/01/25 15:00:02;;;;;;;31.60;19.80;;;2.70;84.90;;;;;;5093688;28;20283;-79
2023/01/25 15:02:38;;;;;;;33.33;21.37;;;2.70;84.40;;;;;;5093695;28;20656;-79
2023/01/25 15:05:18;;;;;;;28.83;19.43;;;2.70;85.00;;;;;;5093796;28;20196;-77
2023/01/25 15:07:50;;;;;;;31.07;20.30;;;2.70;85.60;;;;;;5093749;28;20222;-77
2023/01/25 15:10:22;;;;;;;31.10;20.43;;;2.60;85.40;;;;;;5093547;28;20275;-77
2023/01/25 15:13:33;;;;;;;34.80;21.27;;;2.60;85.10;;;;;;5093520;28;20686;-80
2023/01/25 15:16:04;;;;;;;39.90;22.83;;;2.60;85.90;;;;;;5075420;28;20682;-78
2023/01/25 15:18:51;;;;;;;43.07;25.57;;;2.60;85.60;;;;;;5093415;28;20279;-79
2023/01/25 15:21:58;;;;;;;47.27;29.87;;;2.60;86.10;;;;;;5093108;28;20216;-79
2023/01/25 15:24:29;;;;;;;63.13;34.13;;;2.60;85.60;;;;;;5093397;28;20263;-77
2023/01/25 15:26:58;;;;;;;51.53;32.83;;;2.60;86.40;;;;;;5092885;28;20196;-79
2023/01/25 15:29:27;;;;;;;51.60;31.17;;;2.60;86.00;;;;;;5093338;28;20276;-78
2023/01/25 15:32:01;;;;;;;47.70;27.73;;;2.50;86.00;;;;;;5093261;28;20715;-80
2023/01/25 15:34:33;;;;;;;104.73;55.37;;;2.40;86.50;;;;;;5093360;28;20712;-80
2023/01/25 15:37:02;;;;;;;38.63;24.87;;;2.40;87.20;;;;;;5093095;28;20629;-79
2023/01/25 15:39:34;;;;;;;43.53;25.53;;;2.40;86.90;;;;;;5092989;28;20188;-79
2023/01/25 15:42:03;;;;;;;35.70;23.00;;;2.30;87.40;;;;;;5092758;28;20228;-80
2023/01/25 15:44:32;;;;;;;35.73;23.50;;;2.30;87.20;;;;;;5074721;28;20204;-79
2023/01/25 15:47:09;;;;;;;36.70;22.10;;;2.30;87.90;;;;;;5092686;28;20200;-80
2023/01/25 15:49:39;;;;;;;33.93;22.33;;;2.30;88.30;;;;;;5092913;28;20199;-82
2023/01/25 15:52:12;;;;;;;38.77;23.03;;;2.30;88.50;;;;;;5093156;28;20232;-80
2023/01/25 15:54:42;;;;;;;42.50;24.53;;;2.20;88.60;;;;;;5092754;28;20275;-79
2023/01/25 15:57:36;;;;;;;46.27;24.87;;;2.20;89.10;;;;;;5074209;28;20196;-78
2023/01/25 16:00:16;;;;;;;42.00;24.20;;;2.20;89.10;;;;;;5093685;28;20192;-79
2023/01/25 16:02:49;;;;;;;41.20;25.17;;;2.20;89.90;;;;;;5093066;28;20771;-79
2023/01/25 16:05:18;;;;;;;44.00;25.90;;;2.20;89.80;;;;;;5092748;28;20207;-79
2023/01/25 16:07:47;;;;;;;43.23;27.93;;;2.10;90.00;;;;;;5092579;28;20196;-77
2023/01/25 16:10:22;;;;;;;46.03;27.50;;;2.10;90.00;;;;;;5092684;28;20188;-81
2023/01/25 16:12:58;;;;;;;51.73;29.33;;;2.10;90.00;;;;;;5092649;28;20272;-79
2023/01/25 16:15:27;;;;;;;52.13;27.97;;;2.10;90.00;;;;;;5092104;28;20271;-80
2023/01/25 16:17:56;;;;;;;44.93;29.60;;;2.10;88.70;;;;;;5091637;28;20276;-80
2023/01/25 16:20:25;;;;;;;47.70;27.87;;;2.10;89.60;;;;;;5091451;28;20200;-79
2023/01/25 16:23:10;;;;;;;47.53;28.57;;;2.10;90.00;;;;;;5089350;28;20254;-79
2023/01/25 16:25:49;;;;;;;48.47;28.13;;;2.00;90.30;;;;;;5090474;28;20216;-78
2023/01/25 16:28:20;;;;;;;50.67;30.23;;;2.00;90.40;;;;;;5090620;28;20196;-78
2023/01/25 16:30:51;;;;;;;56.47;31.03;;;1.90;90.60;;;;;;5091500;28;20188;-78
2023/01/25 16:36:15;;;;;;;56.13;30.40;;;1.90;90.70;;;;;;5088486;28;20278;-75
2023/01/25 16:38:45;;;;;;;62.43;33.77;;;1.80;91.10;;;;;;5091462;28;20686;-77
2023/01/25 16:41:34;;;;;;;61.10;33.20;;;1.80;91.50;;;;;;5091821;28;20658;-75
2023/01/25 16:44:05;;;;;;;59.90;33.00;;;1.80;91.70;;;;;;5090084;28;20216;-76
2023/01/25 16:46:41;;;;;;;59.87;32.30;;;1.70;91.70;;;;;;5091146;28;20220;-77
2023/01/25 16:49:15;;;;;;;55.57;33.47;;;1.80;91.90;;;;;;5091305;28;20197;-76
2023/01/25 16:51:45;;;;;;;60.23;33.33;;;1.70;91.80;;;;;;5090951;28;20241;-78
2023/01/25 16:54:23;;;;;;;62.50;33.73;;;1.70;91.90;;;;;;5091075;28;20565;-78
2023/01/25 16:56:58;;;;;;;60.57;33.30;;;1.70;92.10;;;;;;5090619;28;20611;-76
2023/01/25 16:59:33;;;;;;;73.40;40.50;;;1.70;92.30;;;;;;5029769;28;20213;-75
2023/01/25 17:02:06;;;;;;;59.57;33.93;;;1.60;92.60;;;;;;5034566;28;20313;-78
2023/01/25 17:04:35;;;;;;;57.50;33.53;;;1.60;92.80;;;;;;5034768;28;20202;-79
2023/01/25 17:07:04;;;;;;;58.37;34.13;;;1.60;92.90;;;;;;5034787;28;20190;-77
2023/01/25 17:09:33;;;;;;;66.83;37.10;;;1.60;93.10;;;;;;5034931;28;20206;-78
2023/01/25 17:12:02;;;;;;;63.63;36.03;;;1.60;93.30;;;;;;5033260;28;20647;-77
2023/01/25 17:14:32;;;;;;;65.67;36.07;;;1.60;93.50;;;;;;5034572;28;20201;-77
2023/01/25 17:17:07;;;;;;;72.87;38.07;;;1.70;93.60;;;;;;5034689;28;20277;-75
2023/01/25 17:22:19;;;;;;;65.97;37.63;;;1.70;93.90;;;;;;5034041;28;20226;-77
2023/01/25 17:24:50;;;;;;;69.63;38.13;;;1.80;93.80;;;;;;5034164;28;20218;-78
2023/01/25 17:27:20;;;;;;;65.43;38.03;;;1.70;93.90;;;;;;5034483;28;20194;-77
2023/01/25 17:29:57;;;;;;;71.93;37.73;;;1.70;94.10;;;;;;5034405;28;20219;-76
2023/01/25 17:32:40;;;;;;;72.33;38.23;;;1.70;94.20;;;;;;5034058;28;20668;-76
2023/01/25 17:35:12;;;;;;;65.43;36.00;;;1.70;94.30;;;;;;5034131;28;20247;-76
2023/01/25 17:37:41;;;;;;;64.60;38.37;;;1.80;94.60;;;;;;5034180;28;20202;-77
2023/01/25 17:40:11;;;;;;;67.17;34.30;;;1.80;94.80;;;;;;5043247;22;20211;-78
2023/01/25 17:43:06;;;;;;;74.17;41.10;;;1.80;94.80;;;;;;5052632;22;20603;-80
2023/01/25 17:45:54;;;;;;;77.37;40.23;;;1.80;95.00;;;;;;5052321;28;20216;-79
2023/01/25 17:48:27;;;;;;;70.50;38.67;;;1.90;95.30;;;;;;5048993;22;20828;-82
2023/01/25 17:51:33;;;;;;;67.80;36.23;;;1.90;95.30;;;;;;4993387;28;20204;-80
2023/01/25 17:54:04;;;;;;;61.53;33.30;;;1.80;95.30;;;;;;4993339;28;20206;-80
2023/01/25 17:56:50;;;;;;;67.87;36.83;;;1.80;95.40;;;;;;4993244;28;20200;-83
2023/01/25 17:59:34;;;;;;;67.97;37.17;;;1.90;95.90;;;;;;4961414;28;20211;-82
2023/01/25 18:02:05;;;;;;;62.33;34.47;;;1.90;95.80;;;;;;4993375;28;20294;-80
2023/01/25 18:04:43;;;;;;;68.03;37.03;;;1.90;96.10;;;;;;4976658;28;20234;-82
2023/01/25 18:07:30;;;;;;;61.13;35.60;;;1.90;95.90;;;;;;5060295;22;20228;-80
2023/01/25 18:10:14;;;;;;;50.73;30.87;;;1.90;95.70;;;;;;5076547;28;20287;-80
2023/01/25 18:15:34;;;;;;;51.57;28.83;;;1.80;96.00;;;;;;5054407;28;20240;-80
2023/01/25 18:18:13;;;;;;;50.43;30.17;;;1.90;95.90;;;;;;5036270;28;20622;-78
2023/01/25 18:20:43;;;;;;;47.93;28.07;;;1.90;96.40;;;;;;5054275;28;20194;-78
2023/01/25 18:23:12;;;;;;;33.23;20.40;;;1.90;96.40;;;;;;5054098;28;20205;-78
2023/01/25 18:25:41;;;;;;;32.43;20.40;;;1.80;96.20;;;;;;5054327;28;20806;-82
2023/01/25 18:28:14;;;;;;;32.23;20.57;;;1.80;96.00;;;;;;5011933;28;20262;-80
2023/01/25 18:30:52;;;;;;;28.20;17.87;;;1.80;96.90;;;;;;5012157;28;20303;-78
2023/01/25 18:33:29;;;;;;;26.70;17.77;;;1.80;96.40;;;;;;5011971;28;20218;-79
2023/01/25 18:36:08;;;;;;;27.00;17.43;;;1.70;97.00;;;;;;4995785;28;20199;-80
2023/01/25 18:38:43;;;;;;;26.20;17.63;;;1.80;96.90;;;;;;5011946;28;20298;-79
2023/01/25 18:41:18;;;;;;;26.10;17.13;;;1.90;97.00;;;;;;5011946;28;20202;-78
2023/01/25 18:44:05;;;;;;;21.20;15.27;;;1.90;96.50;;;;;;5011932;28;20250;-80
2023/01/25 18:46:35;;;;;;;20.63;14.33;;;1.90;96.60;;;;;;5011470;28;20218;-80
2023/01/25 18:49:13;;;;;;;21.40;16.03;;;1.90;96.80;;;;;;4995383;28;20226;-77
2023/01/25 18:51:43;;;;;;;21.80;14.60;;;1.80;96.70;;;;;;5009469;28;20599;-78
2023/01/25 18:54:32;;;;;;;26.20;15.67;;;1.80;96.70;;;;;;4998801;28;20243;-79
2023/01/25 18:57:01;;;;;;;22.57;14.87;;;1.70;97.00;;;;;;4992266;28;20243;-78
2023/01/25 18:59:31;;;;;;;20.57;14.37;;;1.70;97.30;;;;;;5013323;28;20281;-79
2023/01/25 19:02:04;;;;;;;26.40;16.47;;;1.70;97.30;;;;;;5014778;28;20206;-78
2023/01/25 19:04:34;;;;;;;23.37;15.17;;;1.70;97.00;;;;;;5032754;28;20254;-76
2023/01/25 19:12:56;;;;;;;25.40;16.20;;;1.70;97.50;;;;;;4189450;26;20315;-74
2023/01/25 19:15:25;;;;;;;24.57;15.97;;;1.70;97.80;;;;;;5092679;28;20208;-78
2023/01/25 19:17:58;;;;;;;28.63;17.33;;;1.80;97.90;;;;;;5092531;28;20188;-75
2023/01/25 19:20:35;;;;;;;29.50;18.73;;;1.80;97.50;;;;;;5092111;28;20275;-77
2023/01/25 19:23:07;;;;;;;25.70;15.73;;;1.90;97.50;;;;;;5090787;28;20204;-77
2023/01/25 19:25:36;;;;;;;25.33;16.43;;;1.90;97.20;;;;;;5092446;28;20273;-76
2023/01/25 19:28:17;;;;;;;25.27;17.07;;;1.80;96.90;;;;;;5092435;28;20273;-77
2023/01/25 19:30:49;;;;;;;25.50;17.07;;;1.70;97.20;;;;;;5059200;28;20204;-79
2023/01/25 19:33:18;;;;;;;29.10;18.20;;;1.70;97.70;;;;;;5092489;28;20188;-77
2023/01/25 19:35:49;;;;;;;31.67;19.73;;;1.70;97.80;;;;;;5074193;28;20565;-76
2023/01/25 19:38:27;;;;;;;29.77;16.60;;;1.70;98.20;;;;;;5092248;28;20196;-76
2023/01/25 19:40:56;;;;;;;26.00;17.10;;;1.70;98.10;;;;;;5081602;28;20251;-77
2023/01/25 19:43:36;;;;;;;26.33;17.90;;;1.80;97.70;;;;;;5087930;28;20208;-78
2023/01/25 19:46:09;;;;;;;26.90;17.57;;;1.80;97.70;;;;;;5074082;28;20196;-76
2023/01/25 19:48:41;;;;;;;25.23;15.87;;;1.70;97.40;;;;;;5092230;28;20202;-76
2023/01/25 19:51:14;;;;;;;21.70;16.00;;;1.70;97.80;;;;;;5072586;28;20208;-76
2023/01/25 19:53:57;;;;;;;25.57;16.20;;;1.70;98.20;;;;;;5091868;28;20196;-77
2023/01/25 19:56:31;;;;;;;26.03;17.00;;;1.70;98.20;;;;;;5091962;28;20249;-78
2023/01/25 19:59:05;;;;;;;31.47;19.57;;;1.70;98.10;;;;;;5091857;28;20192;-76
2023/01/25 20:04:28;;;;;;;24.47;16.43;;;1.80;98.20;;;;;;5073120;28;20285;-78
2023/01/25 20:07:10;;;;;;;24.63;16.73;;;1.80;98.00;;;;;;5073073;28;20203;-77
2023/01/25 20:12:22;;;;;;;27.67;18.10;;;1.80;97.90;;;;;;5082042;28;20285;-77
2023/01/25 20:14:51;;;;;;;25.60;17.33;;;1.90;97.80;;;;;;5074072;28;20563;-78
2023/01/25 20:17:20;;;;;;;27.20;16.57;;;2.00;97.50;;;;;;5078274;28;20196;-79
2023/01/25 20:19:49;;;;;;;26.83;17.10;;;1.90;97.00;;;;;;5052799;28;20197;-77
2023/01/25 20:22:20;;;;;;;24.83;16.40;;;1.90;97.20;;;;;;5071210;28;20197;-77
2023/01/25 20:24:49;;;;;;;21.80;15.20;;;1.90;97.00;;;;;;5069832;28;20249;-77
2023/01/25 20:27:32;;;;;;;20.77;14.57;;;1.90;97.20;;;;;;5069711;28;20228;-77
2023/01/25 20:30:01;;;;;;;21.33;14.63;;;1.80;96.80;;;;;;5070931;28;20217;-77
2023/01/25 20:32:50;;;;;;;20.93;13.37;;;1.80;97.40;;;;;;5070926;28;20205;-81
2023/01/25 20:35:19;;;;;;;21.80;14.67;;;1.70;97.50;;;;;;5069304;28;20209;-78
2023/01/25 20:37:51;;;;;;;19.97;14.80;;;1.70;97.50;;;;;;5063720;28;20303;-79
2023/01/25 20:43:47;;;;;;;23.47;16.07;;;1.70;98.10;;;;;;5070283;22;20233;-78
2023/01/25 20:46:48;;;;;;;25.03;14.87;;;1.80;98.10;;;;;;5067157;28;20534;-77
2023/01/25 20:49:23;;;;;;;21.17;14.90;;;1.70;97.80;;;;;;5079218;28;20204;-78
2023/01/25 20:51:52;;;;;;;27.50;18.53;;;1.70;98.10;;;;;;5070791;28;20192;-77
2023/01/25 20:54:32;;;;;;;22.37;16.00;;;1.70;98.00;;;;;;5070918;28;20675;-77
2023/01/25 20:57:02;;;;;;;24.60;17.03;;;1.70;98.30;;;;;;5071120;28;20752;-77
2023/01/25 20:59:34;;;;;;;25.73;16.40;;;1.70;98.30;;;;;;5070802;28;20189;-77
2023/01/25 21:02:03;;;;;;;33.53;23.03;;;1.70;98.40;;;;;;5070799;28;20690;-79
2023/01/25 21:04:43;;;;;;;22.20;15.57;;;1.80;98.80;;;;;;5069030;28;20724;-79
2023/01/25 21:07:12;;;;;;;22.97;15.60;;;1.70;97.90;;;;;;5069573;28;20201;-80
2023/01/25 21:09:45;;;;;;;22.80;15.47;;;1.70;98.40;;;;;;5068873;28;20560;-77
2023/01/25 21:12:14;;;;;;;24.00;16.43;;;1.60;99.00;;;;;;5070132;28;20193;-77
2023/01/25 21:14:50;;;;;;;27.57;16.93;;;1.70;99.00;;;;;;5052783;28;20236;-79
2023/01/25 21:17:19;;;;;;;26.83;17.20;;;1.70;99.30;;;;;;5070823;28;20185;-80
2023/01/25 21:20:07;;;;;;;36.30;18.47;;;1.80;98.60;;;;;;5052372;28;20221;-80
2023/01/25 21:22:36;;;;;;;27.53;18.63;;;1.90;98.40;;;;;;5071529;28;20198;-77
2023/01/25 21:25:13;;;;;;;26.77;18.50;;;1.90;98.20;;;;;;5070665;28;20646;-77
2023/01/25 21:27:42;;;;;;;26.37;18.03;;;1.90;98.10;;;;;;5070616;28;20201;-78
2023/01/25 21:30:14;;;;;;;26.13;15.90;;;1.90;98.20;;;;;;5070538;28;20199;-78
2023/01/25 21:35:28;;;;;;;22.67;14.93;;;1.80;98.40;;;;;;5084030;28;20225;-79
2023/01/25 21:38:11;;;;;;;22.67;15.00;;;1.80;98.40;;;;;;5079509;28;20219;-77
2023/01/25 21:41:00;;;;;;;19.60;13.73;;;1.80;98.40;;;;;;5090389;28;20196;-77
2023/01/25 21:46:12;;;;;;;21.13;14.87;;;1.80;98.70;;;;;;5076756;28;20229;-77
2023/01/25 21:46:24;;;;;;;19.20;13.93;;;1.70;98.80;;;;;;5072208;28;20621;-76
2023/01/25 21:51:54;;;;;;;21.07;14.90;;;1.70;98.60;;;;;;5093544;28;20192;-77
2023/01/25 21:54:28;;;;;;;19.80;14.47;;;1.70;99.20;;;;;;5075833;28;20203;-79
2023/01/25 21:57:01;;;;;;;22.30;15.50;;;1.60;99.10;;;;;;5094226;28;20265;-77
2023/01/25 21:59:40;;;;;;;;;;;;;;;;;;;;;
2023/01/25 22:02:29;;;;;;;22.30;14.87;;;1.60;99.50;;;;;;5075607;28;20291;-77
2023/01/25 22:04:58;;;;;;;24.43;16.80;;;1.70;99.80;;;;;;5093182;28;20618;-78
2023/01/25 22:07:27;;;;;;;23.97;15.20;;;1.80;99.80;;;;;;5075366;28;20232;-78
2023/01/25 22:09:59;;;;;;;29.50;18.30;;;1.80;99.30;;;;;;5075584;28;20276;-80
2023/01/25 22:12:30;;;;;;;22.70;16.23;;;1.80;99.30;;;;;;5093301;28;20277;-78
2023/01/25 22:15:00;;;;;;;23.93;16.20;;;1.80;99.30;;;;;;5093962;28;20227;-76
2023/01/25 22:17:31;;;;;;;21.97;15.83;;;1.80;99.10;;;;;;5092290;28;20207;-78
2023/01/25 22:20:00;;;;;;;27.73;17.83;;;1.90;99.20;;;;;;5093812;28;20234;-78
2023/01/25 22:22:29;;;;;;;23.90;16.97;;;1.90;99.00;;;;;;5093251;28;20267;-77
2023/01/25 22:25:09;;;;;;;24.00;16.87;;;1.90;98.60;;;;;;5075331;28;20227;-79
2023/01/25 22:27:58;;;;;;;24.50;16.57;;;1.90;99.00;;;;;;5075328;28;20204;-77
2023/01/25 22:30:33;;;;;;;20.70;14.33;;;1.90;98.80;;;;;;5093171;28;20196;-78
2023/01/25 22:33:04;;;;;;;22.33;15.30;;;1.80;99.00;;;;;;5075277;28;20565;-76
2023/01/25 22:35:40;;;;;;;20.43;14.73;;;1.80;99.20;;;;;;5092858;28;20192;-77
2023/01/25 22:38:09;;;;;;;25.30;15.03;;;1.80;99.40;;;;;;5092647;28;20210;-77
2023/01/25 22:40:38;;;;;;;20.97;14.60;;;1.70;99.30;;;;;;5092948;28;20193;-78
2023/01/25 22:43:09;;;;;;;19.10;14.50;;;1.70;99.50;;;;;;5085801;28;20232;-77